sensor_id;sensor_type;location;lat;lon;timestamp;pressure;altitude;pressure_sealevel;temperature
45976;BMP280;31696;42.668;23.322;2024-02-28T00:01:00;95009.44;;;10.25
45976;BMP280;31696;42.668;23.322;2024-02-28T00:03:00;95021.56;;;10.22
45976;BMP280;31696;42.668;23.322;2024-02-28T00:05:00;95015.97;;;9.82
45976;BMP280;31696;42.668;23.322;2024-02-28T00:07:01;95020.69;;;9.91
45976;BMP280;31696;42.668;23.322;2024-02-28T00:09:01;95019.41;;;10.06
45976;BMP280;31696;42.668;23.322;2024-02-28T00:11:01;95018.47;;;9.95
45976;BMP280;31696;42.668;23.322;2024-02-28T00:13:02;95024.84;;;9.94
45976;BMP280;31696;42.668;23.322;2024-02-28T00:15:02;95022.47;;;9.96
45976;BMP280;31696;42.668;23.322;2024-02-28T00:17:03;95023.47;;;9.93
45976;BMP280;31696;42.668;23.322;2024-02-28T00:19:04;95023.50;;;10.01
45976;BMP280;31696;42.668;23.322;2024-02-28T00:21:04;95032.53;;;10.08
45976;BMP280;31696;42.668;23.322;2024-02-28T00:23:04;95025.31;;;9.85
45976;BMP280;31696;42.668;23.322;2024-02-28T00:25:05;95018.22;;;9.78
45976;BMP280;31696;42.668;23.322;2024-02-28T00:27:06;95029.97;;;9.79
45976;BMP280;31696;42.668;23.322;2024-02-28T00:29:06;95026.53;;;9.84
45976;BMP280;31696;42.668;23.322;2024-02-28T00:31:07;95033.00;;;9.70
45976;BMP280;31696;42.668;23.322;2024-02-28T00:33:07;95028.59;;;9.78
45976;BMP280;31696;42.668;23.322;2024-02-28T00:35:07;95023.09;;;9.61
45976;BMP280;31696;42.668;23.322;2024-02-28T00:37:08;95027.69;;;9.55
45976;BMP280;31696;42.668;23.322;2024-02-28T00:39:08;95022.63;;;9.70
45976;BMP280;31696;42.668;23.322;2024-02-28T00:41:09;95022.03;;;9.85
45976;BMP280;31696;42.668;23.322;2024-02-28T00:43:09;95025.06;;;9.68
45976;BMP280;31696;42.668;23.322;2024-02-28T00:45:09;95019.34;;;9.49
45976;BMP280;31696;42.668;23.322;2024-02-28T00:47:10;95032.31;;;9.49
45976;BMP280;31696;42.668;23.322;2024-02-28T00:49:10;95020.84;;;9.65
45976;BMP280;31696;42.668;23.322;2024-02-28T00:51:11;95024.25;;;9.32
45976;BMP280;31696;42.668;23.322;2024-02-28T00:53:11;95026.97;;;9.47
45976;BMP280;31696;42.668;23.322;2024-02-28T00:55:12;95024.66;;;9.64
45976;BMP280;31696;42.668;23.322;2024-02-28T00:57:12;95024.66;;;9.64
45976;BMP280;31696;42.668;23.322;2024-02-28T00:59:13;95024.13;;;9.37
45976;BMP280;31696;42.668;23.322;2024-02-28T01:01:13;95028.41;;;9.14
45976;BMP280;31696;42.668;23.322;2024-02-28T01:03:14;95026.00;;;9.37
45976;BMP280;31696;42.668;23.322;2024-02-28T01:05:15;95032.78;;;9.40
45976;BMP280;31696;42.668;23.322;2024-02-28T01:07:16;95032.28;;;9.41
45976;BMP280;31696;42.668;23.322;2024-02-28T01:09:16;95031.13;;;9.50
45976;BMP280;31696;42.668;23.322;2024-02-28T01:11:16;95032.53;;;9.51
45976;BMP280;31696;42.668;23.322;2024-02-28T01:13:16;95030.03;;;9.66
45976;BMP280;31696;42.668;23.322;2024-02-28T01:15:17;95033.34;;;9.46
45976;BMP280;31696;42.668;23.322;2024-02-28T01:17:17;95033.34;;;9.46
45976;BMP280;31696;42.668;23.322;2024-02-28T01:19:17;95035.81;;;9.52
45976;BMP280;31696;42.668;23.322;2024-02-28T01:21:18;95034.63;;;9.53
45976;BMP280;31696;42.668;23.322;2024-02-28T01:23:19;95038.44;;;9.80
45976;BMP280;31696;42.668;23.322;2024-02-28T01:25:19;95030.25;;;9.68
45976;BMP280;31696;42.668;23.322;2024-02-28T01:27:20;95032.00;;;9.73
45976;BMP280;31696;42.668;23.322;2024-02-28T01:29:20;95034.75;;;9.75
45976;BMP280;31696;42.668;23.322;2024-02-28T01:31:20;95033.94;;;9.18
45976;BMP280;31696;42.668;23.322;2024-02-28T01:33:21;95038.44;;;9.18
45976;BMP280;31696;42.668;23.322;2024-02-28T01:35:21;95036.53;;;9.18
45976;BMP280;31696;42.668;23.322;2024-02-28T01:37:22;95043.13;;;9.40
45976;BMP280;31696;42.668;23.322;2024-02-28T01:39:22;95046.34;;;9.33
45976;BMP280;31696;42.668;23.322;2024-02-28T01:41:23;95048.97;;;8.65
45976;BMP280;31696;42.668;23.322;2024-02-28T01:43:23;95049.63;;;9.13
45976;BMP280;31696;42.668;23.322;2024-02-28T01:45:23;95044.28;;;8.98
45976;BMP280;31696;42.668;23.322;2024-02-28T01:47:24;95045.09;;;8.92
45976;BMP280;31696;42.668;23.322;2024-02-28T01:49:24;95049.44;;;9.11
45976;BMP280;31696;42.668;23.322;2024-02-28T01:51:26;95041.75;;;8.84
45976;BMP280;31696;42.668;23.322;2024-02-28T01:53:29;95056.00;;;8.78
45976;BMP280;31696;42.668;23.322;2024-02-28T01:55:29;95050.47;;;8.94
45976;BMP280;31696;42.668;23.322;2024-02-28T01:57:30;95059.25;;;8.91
45976;BMP280;31696;42.668;23.322;2024-02-28T01:59:30;95055.06;;;8.88
45976;BMP280;31696;42.668;23.322;2024-02-28T02:01:31;95054.22;;;8.86
45976;BMP280;31696;42.668;23.322;2024-02-28T02:03:31;95053.50;;;8.85
45976;BMP280;31696;42.668;23.322;2024-02-28T02:05:34;95056.44;;;9.03
45976;BMP280;31696;42.668;23.322;2024-02-28T02:07:34;95064.50;;;8.65
45976;BMP280;31696;42.668;23.322;2024-02-28T02:09:35;95047.81;;;8.87
45976;BMP280;31696;42.668;23.322;2024-02-28T02:11:36;95052.72;;;8.77
45976;BMP280;31696;42.668;23.322;2024-02-28T02:13:46;95061.09;;;8.57
45976;BMP280;31696;42.668;23.322;2024-02-28T02:15:47;95051.56;;;8.65
45976;BMP280;31696;42.668;23.322;2024-02-28T02:17:47;95051.78;;;8.15
45976;BMP280;31696;42.668;23.322;2024-02-28T02:19:47;95058.88;;;8.61
45976;BMP280;31696;42.668;23.322;2024-02-28T02:21:52;95052.53;;;8.62
45976;BMP280;31696;42.668;23.322;2024-02-28T02:23:53;95053.94;;;8.50
45976;BMP280;31696;42.668;23.322;2024-02-28T02:25:54;95049.66;;;8.39
45976;BMP280;31696;42.668;23.322;2024-02-28T02:27:54;95052.97;;;8.27
45976;BMP280;31696;42.668;23.322;2024-02-28T02:29:54;95041.22;;;8.26
45976;BMP280;31696;42.668;23.322;2024-02-28T02:31:55;95050.97;;;8.33
45976;BMP280;31696;42.668;23.322;2024-02-28T02:33:55;95043.59;;;8.50
45976;BMP280;31696;42.668;23.322;2024-02-28T02:35:56;95047.19;;;8.34
45976;BMP280;31696;42.668;23.322;2024-02-28T02:37:56;95038.41;;;8.11
45976;BMP280;31696;42.668;23.322;2024-02-28T02:39:56;95050.84;;;8.25
45976;BMP280;31696;42.668;23.322;2024-02-28T02:41:57;95050.66;;;8.23
45976;BMP280;31696;42.668;23.322;2024-02-28T02:43:57;95051.44;;;8.18
45976;BMP280;31696;42.668;23.322;2024-02-28T02:45:58;95058.31;;;8.16
45976;BMP280;31696;42.668;23.322;2024-02-28T02:47:58;95054.56;;;8.30
45976;BMP280;31696;42.668;23.322;2024-02-28T02:49:58;95056.13;;;8.33
45976;BMP280;31696;42.668;23.322;2024-02-28T02:51:59;95058.03;;;8.32
45976;BMP280;31696;42.668;23.322;2024-02-28T02:53:59;95059.13;;;8.37
45976;BMP280;31696;42.668;23.322;2024-02-28T02:55:59;95061.50;;;8.22
45976;BMP280;31696;42.668;23.322;2024-02-28T02:58:00;95052.97;;;8.14
45976;BMP280;31696;42.668;23.322;2024-02-28T03:00:00;95050.38;;;8.27
45976;BMP280;31696;42.668;23.322;2024-02-28T03:02:01;95056.53;;;8.37
45976;BMP280;31696;42.668;23.322;2024-02-28T03:04:01;95053.13;;;8.42
45976;BMP280;31696;42.668;23.322;2024-02-28T03:06:01;95047.97;;;8.16
45976;BMP280;31696;42.668;23.322;2024-02-28T03:08:02;95051.84;;;8.35
45976;BMP280;31696;42.668;23.322;2024-02-28T03:10:02;95044.59;;;8.47
45976;BMP280;31696;42.668;23.322;2024-02-28T03:12:03;95046.38;;;8.39
45976;BMP280;31696;42.668;23.322;2024-02-28T03:14:03;95057.94;;;8.38
45976;BMP280;31696;42.668;23.322;2024-02-28T03:16:04;95057.13;;;8.30
45976;BMP280;31696;42.668;23.322;2024-02-28T03:18:04;95056.31;;;8.22
45976;BMP280;31696;42.668;23.322;2024-02-28T03:20:05;95051.56;;;8.26
45976;BMP280;31696;42.668;23.322;2024-02-28T03:22:07;95056.63;;;8.18
45976;BMP280;31696;42.668;23.322;2024-02-28T03:24:07;95052.44;;;8.15
45976;BMP280;31696;42.668;23.322;2024-02-28T03:26:07;95059.03;;;8.29
45976;BMP280;31696;42.668;23.322;2024-02-28T03:28:08;95049.75;;;8.08
45976;BMP280;31696;42.668;23.322;2024-02-28T03:30:08;95060.78;;;7.95
45976;BMP280;31696;42.668;23.322;2024-02-28T03:32:08;95064.88;;;8.04
45976;BMP280;31696;42.668;23.322;2024-02-28T03:34:09;95065.38;;;8.15
45976;BMP280;31696;42.668;23.322;2024-02-28T03:36:10;95061.09;;;8.18
45976;BMP280;31696;42.668;23.322;2024-02-28T03:38:10;95065.06;;;8.06
45976;BMP280;31696;42.668;23.322;2024-02-28T03:40:10;95074.03;;;8.05
45976;BMP280;31696;42.668;23.322;2024-02-28T03:42:11;95077.69;;;7.96
45976;BMP280;31696;42.668;23.322;2024-02-28T03:44:11;95074.28;;;7.88
45976;BMP280;31696;42.668;23.322;2024-02-28T03:46:12;95072.22;;;8.00
45976;BMP280;31696;42.668;23.322;2024-02-28T03:48:12;95073.59;;;7.87
45976;BMP280;31696;42.668;23.322;2024-02-28T03:50:12;95072.69;;;7.85
45976;BMP280;31696;42.668;23.322;2024-02-28T03:52:13;95079.41;;;8.07
45976;BMP280;31696;42.668;23.322;2024-02-28T03:54:13;95072.66;;;8.04
45976;BMP280;31696;42.668;23.322;2024-02-28T03:56:20;95076.13;;;8.06
45976;BMP280;31696;42.668;23.322;2024-02-28T03:58:21;95074.13;;;7.99
45976;BMP280;31696;42.668;23.322;2024-02-28T04:00:21;95076.50;;;7.84
45976;BMP280;31696;42.668;23.322;2024-02-28T04:02:22;95076.84;;;7.75
45976;BMP280;31696;42.668;23.322;2024-02-28T04:04:22;95077.28;;;7.92
45976;BMP280;31696;42.668;23.322;2024-02-28T04:06:22;95074.59;;;7.98
45976;BMP280;31696;42.668;23.322;2024-02-28T04:08:23;95076.88;;;7.88
45976;BMP280;31696;42.668;23.322;2024-02-28T04:10:23;95067.03;;;7.73
45976;BMP280;31696;42.668;23.322;2024-02-28T04:12:23;95070.72;;;7.91
45976;BMP280;31696;42.668;23.322;2024-02-28T04:14:23;95057.75;;;7.78
45976;BMP280;31696;42.668;23.322;2024-02-28T04:16:24;95066.63;;;7.82
45976;BMP280;31696;42.668;23.322;2024-02-28T04:18:24;95065.84;;;7.87
45976;BMP280;31696;42.668;23.322;2024-02-28T04:20:25;95064.84;;;7.90
45976;BMP280;31696;42.668;23.322;2024-02-28T04:22:25;95060.44;;;7.72
45976;BMP280;31696;42.668;23.322;2024-02-28T04:24:25;95054.97;;;7.76
45976;BMP280;31696;42.668;23.322;2024-02-28T04:26:26;95062.16;;;7.51
45976;BMP280;31696;42.668;23.322;2024-02-28T04:28:26;95060.06;;;7.50
45976;BMP280;31696;42.668;23.322;2024-02-28T04:30:26;95069.34;;;7.58
45976;BMP280;31696;42.668;23.322;2024-02-28T04:32:45;95063.81;;;7.67
45976;BMP280;31696;42.668;23.322;2024-02-28T04:34:46;95064.91;;;7.72
45976;BMP280;31696;42.668;23.322;2024-02-28T04:36:46;95061.22;;;7.67
45976;BMP280;31696;42.668;23.322;2024-02-28T04:38:46;95064.22;;;7.71
45976;BMP280;31696;42.668;23.322;2024-02-28T04:40:47;95070.41;;;7.81
45976;BMP280;31696;42.668;23.322;2024-02-28T04:42:47;95070.72;;;7.91
45976;BMP280;31696;42.668;23.322;2024-02-28T04:44:47;95066.72;;;7.77
45976;BMP280;31696;42.668;23.322;2024-02-28T04:46:47;95077.16;;;7.84
45976;BMP280;31696;42.668;23.322;2024-02-28T04:48:48;95070.63;;;7.83
45976;BMP280;31696;42.668;23.322;2024-02-28T04:50:48;95071.81;;;7.82
45976;BMP280;31696;42.668;23.322;2024-02-28T04:52:48;95074.31;;;8.01
45976;BMP280;31696;42.668;23.322;2024-02-28T04:54:49;95073.66;;;7.37
45976;BMP280;31696;42.668;23.322;2024-02-28T04:56:49;95072.63;;;7.59
45976;BMP280;31696;42.668;23.322;2024-02-28T04:58:51;95074.19;;;7.80
45976;BMP280;31696;42.668;23.322;2024-02-28T05:00:51;95071.75;;;7.69
45976;BMP280;31696;42.668;23.322;2024-02-28T05:02:52;95076.13;;;7.61
45976;BMP280;31696;42.668;23.322;2024-02-28T05:04:52;95076.72;;;7.67
45976;BMP280;31696;42.668;23.322;2024-02-28T05:06:53;95090.31;;;7.36
45976;BMP280;31696;42.668;23.322;2024-02-28T05:08:53;95088.47;;;7.68
45976;BMP280;31696;42.668;23.322;2024-02-28T05:10:53;95090.03;;;7.58
45976;BMP280;31696;42.668;23.322;2024-02-28T05:12:54;95088.38;;;7.74
45976;BMP280;31696;42.668;23.322;2024-02-28T05:14:54;95085.28;;;7.62
45976;BMP280;31696;42.668;23.322;2024-02-28T05:16:55;95090.84;;;7.66
45976;BMP280;31696;42.668;23.322;2024-02-28T05:18:55;95099.78;;;7.65
45976;BMP280;31696;42.668;23.322;2024-02-28T05:20:55;95101.31;;;7.74
45976;BMP280;31696;42.668;23.322;2024-02-28T05:22:56;95102.28;;;7.71
45976;BMP280;31696;42.668;23.322;2024-02-28T05:24:56;95108.38;;;7.73
45976;BMP280;31696;42.668;23.322;2024-02-28T05:26:56;95111.50;;;7.85
45976;BMP280;31696;42.668;23.322;2024-02-28T05:28:57;95117.66;;;7.82
45976;BMP280;31696;42.668;23.322;2024-02-28T05:30:57;95111.22;;;8.02
45976;BMP280;31696;42.668;23.322;2024-02-28T05:32:57;95119.41;;;8.06
45976;BMP280;31696;42.668;23.322;2024-02-28T05:34:58;95115.63;;;8.07
45976;BMP280;31696;42.668;23.322;2024-02-28T05:36:59;95120.28;;;7.76
45976;BMP280;31696;42.668;23.322;2024-02-28T05:39:01;95119.47;;;8.00
45976;BMP280;31696;42.668;23.322;2024-02-28T05:41:02;95122.38;;;8.10
45976;BMP280;31696;42.668;23.322;2024-02-28T05:43:02;95134.13;;;8.11
45976;BMP280;31696;42.668;23.322;2024-02-28T05:45:04;95132.34;;;8.19
45976;BMP280;31696;42.668;23.322;2024-02-28T05:47:04;95135.94;;;8.16
45976;BMP280;31696;42.668;23.322;2024-02-28T05:49:05;95129.38;;;8.15
45976;BMP280;31696;42.668;23.322;2024-02-28T05:51:05;95137.69;;;8.08
45976;BMP280;31696;42.668;23.322;2024-02-28T05:53:06;95137.72;;;8.21
45976;BMP280;31696;42.668;23.322;2024-02-28T05:55:06;95148.28;;;8.23
45976;BMP280;31696;42.668;23.322;2024-02-28T05:57:07;95143.81;;;8.23
45976;BMP280;31696;42.668;23.322;2024-02-28T05:59:07;95152.09;;;8.35
45976;BMP280;31696;42.668;23.322;2024-02-28T06:01:08;95141.41;;;8.12
45976;BMP280;31696;42.668;23.322;2024-02-28T06:03:08;95149.81;;;8.45
45976;BMP280;31696;42.668;23.322;2024-02-28T06:05:08;95145.97;;;8.06
45976;BMP280;31696;42.668;23.322;2024-02-28T06:07:09;95143.19;;;8.30
45976;BMP280;31696;42.668;23.322;2024-02-28T06:09:09;95149.88;;;8.26
45976;BMP280;31696;42.668;23.322;2024-02-28T06:11:10;95150.06;;;8.15
45976;BMP280;31696;42.668;23.322;2024-02-28T06:13:10;95156.28;;;8.64
45976;BMP280;31696;42.668;23.322;2024-02-28T06:15:11;95151.31;;;8.53
45976;BMP280;31696;42.668;23.322;2024-02-28T06:17:12;95161.78;;;9.34
45976;BMP280;31696;42.668;23.322;2024-02-28T06:19:12;95167.00;;;9.21
45976;BMP280;31696;42.668;23.322;2024-02-28T06:21:13;95164.03;;;9.04
45976;BMP280;31696;42.668;23.322;2024-02-28T06:23:13;95166.63;;;9.04
45976;BMP280;31696;42.668;23.322;2024-02-28T06:25:14;95164.19;;;9.19
45976;BMP280;31696;42.668;23.322;2024-02-28T06:27:19;95170.34;;;9.42
45976;BMP280;31696;42.668;23.322;2024-02-28T06:29:19;95170.63;;;9.72
45976;BMP280;31696;42.668;23.322;2024-02-28T06:31:22;95168.03;;;9.52
45976;BMP280;31696;42.668;23.322;2024-02-28T06:33:22;95169.75;;;9.90
45976;BMP280;31696;42.668;23.322;2024-02-28T06:35:22;95167.31;;;10.06
45976;BMP280;31696;42.668;23.322;2024-02-28T06:37:23;95167.25;;;10.26
45976;BMP280;31696;42.668;23.322;2024-02-28T06:39:23;95169.59;;;10.37
45976;BMP280;31696;42.668;23.322;2024-02-28T06:41:24;95165.59;;;9.87
45976;BMP280;31696;42.668;23.322;2024-02-28T06:43:24;95173.41;;;10.16
45976;BMP280;31696;42.668;23.322;2024-02-28T06:45:25;95175.84;;;10.42
45976;BMP280;31696;42.668;23.322;2024-02-28T06:47:25;95170.47;;;11.12
45976;BMP280;31696;42.668;23.322;2024-02-28T06:49:25;95159.13;;;10.86
45976;BMP280;31696;42.668;23.322;2024-02-28T06:51:25;95167.22;;;10.75
45976;BMP280;31696;42.668;23.322;2024-02-28T06:53:26;95167.94;;;10.83
45976;BMP280;31696;42.668;23.322;2024-02-28T06:55:26;95171.56;;;11.24
45976;BMP280;31696;42.668;23.322;2024-02-28T06:57:26;95161.19;;;11.39
45976;BMP280;31696;42.668;23.322;2024-02-28T06:59:27;95166.69;;;11.28
45976;BMP280;31696;42.668;23.322;2024-02-28T07:01:27;95161.00;;;11.29
45976;BMP280;31696;42.668;23.322;2024-02-28T07:03:27;95158.97;;;11.50
45976;BMP280;31696;42.668;23.322;2024-02-28T07:05:28;95163.47;;;11.65
45976;BMP280;31696;42.668;23.322;2024-02-28T07:07:28;95166.63;;;11.71
45976;BMP280;31696;42.668;23.322;2024-02-28T07:09:28;95164.38;;;11.75
45976;BMP280;31696;42.668;23.322;2024-02-28T07:11:31;95169.72;;;12.38
45976;BMP280;31696;42.668;23.322;2024-02-28T07:13:31;95167.09;;;12.53
45976;BMP280;31696;42.668;23.322;2024-02-28T07:15:32;95168.91;;;11.82
45976;BMP280;31696;42.668;23.322;2024-02-28T07:17:32;95163.97;;;12.47
45976;BMP280;31696;42.668;23.322;2024-02-28T07:19:32;95158.28;;;12.10
45976;BMP280;31696;42.668;23.322;2024-02-28T07:21:33;95164.56;;;13.50
45976;BMP280;31696;42.668;23.322;2024-02-28T07:23:33;95163.16;;;11.84
45976;BMP280;31696;42.668;23.322;2024-02-28T07:25:33;95160.91;;;12.81
45976;BMP280;31696;42.668;23.322;2024-02-28T07:27:34;95159.78;;;12.59
45976;BMP280;31696;42.668;23.322;2024-02-28T07:29:36;95167.78;;;12.53
45976;BMP280;31696;42.668;23.322;2024-02-28T07:31:36;95169.78;;;12.77
45976;BMP280;31696;42.668;23.322;2024-02-28T07:33:36;95161.19;;;13.32
45976;BMP280;31696;42.668;23.322;2024-02-28T07:35:46;95171.56;;;13.89
45976;BMP280;31696;42.668;23.322;2024-02-28T07:37:47;95176.84;;;14.23
45976;BMP280;31696;42.668;23.322;2024-02-28T07:39:47;95171.31;;;14.54
45976;BMP280;31696;42.668;23.322;2024-02-28T07:41:48;95173.50;;;15.28
45976;BMP280;31696;42.668;23.322;2024-02-28T07:43:48;95163.88;;;14.77
45976;BMP280;31696;42.668;23.322;2024-02-28T07:45:49;95162.94;;;14.82
45976;BMP280;31696;42.668;23.322;2024-02-28T07:47:49;95166.69;;;15.97
45976;BMP280;31696;42.668;23.322;2024-02-28T07:49:50;95169.47;;;15.17
45976;BMP280;31696;42.668;23.322;2024-02-28T07:51:51;95165.91;;;15.22
45976;BMP280;31696;42.668;23.322;2024-02-28T07:53:51;95164.53;;;16.22
45976;BMP280;31696;42.668;23.322;2024-02-28T07:55:51;95167.09;;;16.61
45976;BMP280;31696;42.668;23.322;2024-02-28T07:57:53;95161.72;;;16.49
45976;BMP280;31696;42.668;23.322;2024-02-28T07:59:53;95164.78;;;17.67
45976;BMP280;31696;42.668;23.322;2024-02-28T08:01:54;95165.97;;;17.75
45976;BMP280;31696;42.668;23.322;2024-02-28T08:03:54;95167.03;;;17.60
45976;BMP280;31696;42.668;23.322;2024-02-28T08:05:54;95171.97;;;17.45
45976;BMP280;31696;42.668;23.322;2024-02-28T08:07:55;95167.66;;;17.19
45976;BMP280;31696;42.668;23.322;2024-02-28T08:09:55;95162.72;;;18.07
45976;BMP280;31696;42.668;23.322;2024-02-28T08:11:55;95161.28;;;18.60
45976;BMP280;31696;42.668;23.322;2024-02-28T08:13:58;95173.41;;;17.27
45976;BMP280;31696;42.668;23.322;2024-02-28T08:15:58;95163.22;;;17.12
45976;BMP280;31696;42.668;23.322;2024-02-28T08:17:58;95159.34;;;17.95
45976;BMP280;31696;42.668;23.322;2024-02-28T08:19:59;95158.06;;;18.73
45976;BMP280;31696;42.668;23.322;2024-02-28T08:21:59;95164.28;;;18.89
45976;BMP280;31696;42.668;23.322;2024-02-28T08:24:00;95159.72;;;18.01
45976;BMP280;31696;42.668;23.322;2024-02-28T08:26:04;95154.78;;;18.17
45976;BMP280;31696;42.668;23.322;2024-02-28T08:28:04;95153.06;;;18.21
45976;BMP280;31696;42.668;23.322;2024-02-28T08:30:06;95151.09;;;17.68
45976;BMP280;31696;42.668;23.322;2024-02-28T08:32:06;95158.09;;;17.75
45976;BMP280;31696;42.668;23.322;2024-02-28T08:34:09;95161.72;;;17.49
45976;BMP280;31696;42.668;23.322;2024-02-28T08:36:10;95147.53;;;18.50
45976;BMP280;31696;42.668;23.322;2024-02-28T08:38:10;95144.16;;;18.26
45976;BMP280;31696;42.668;23.322;2024-02-28T08:40:11;95144.03;;;17.71
45976;BMP280;31696;42.668;23.322;2024-02-28T08:42:12;95141.56;;;17.84
45976;BMP280;31696;42.668;23.322;2024-02-28T08:44:12;95139.53;;;17.83
45976;BMP280;31696;42.668;23.322;2024-02-28T08:46:15;95148.31;;;17.66
45976;BMP280;31696;42.668;23.322;2024-02-28T08:48:16;95139.81;;;18.75
45976;BMP280;31696;42.668;23.322;2024-02-28T08:50:16;95142.66;;;18.12
45976;BMP280;31696;42.668;23.322;2024-02-28T08:52:17;95140.03;;;18.23
45976;BMP280;31696;42.668;23.322;2024-02-28T08:54:17;95142.91;;;18.72
45976;BMP280;31696;42.668;23.322;2024-02-28T08:56:17;95140.91;;;18.49
45976;BMP280;31696;42.668;23.322;2024-02-28T08:58:18;95138.50;;;16.84
45976;BMP280;31696;42.668;23.322;2024-02-28T09:00:18;95140.94;;;18.16
45976;BMP280;31696;42.668;23.322;2024-02-28T09:02:19;95142.34;;;18.08
45976;BMP280;31696;42.668;23.322;2024-02-28T09:04:19;95132.94;;;17.72
45976;BMP280;31696;42.668;23.322;2024-02-28T09:06:19;95133.63;;;17.51
45976;BMP280;31696;42.668;23.322;2024-02-28T09:08:20;95139.28;;;17.27
45976;BMP280;31696;42.668;23.322;2024-02-28T09:10:20;95139.91;;;17.16
45976;BMP280;31696;42.668;23.322;2024-02-28T09:12:23;95144.56;;;17.17
45976;BMP280;31696;42.668;23.322;2024-02-28T09:14:24;95149.69;;;17.25
45976;BMP280;31696;42.668;23.322;2024-02-28T09:16:24;95153.53;;;17.54
45976;BMP280;31696;42.668;23.322;2024-02-28T09:18:24;95148.28;;;17.24
45976;BMP280;31696;42.668;23.322;2024-02-28T09:20:25;95146.91;;;17.23
45976;BMP280;31696;42.668;23.322;2024-02-28T09:22:25;95135.47;;;17.18
45976;BMP280;31696;42.668;23.322;2024-02-28T09:24:26;95146.75;;;17.00
45976;BMP280;31696;42.668;23.322;2024-02-28T09:26:26;95143.09;;;17.14
45976;BMP280;31696;42.668;23.322;2024-02-28T09:28:27;95137.16;;;17.14
45976;BMP280;31696;42.668;23.322;2024-02-28T09:30:27;95129.41;;;17.16
45976;BMP280;31696;42.668;23.322;2024-02-28T09:32:27;95125.56;;;17.07
45976;BMP280;31696;42.668;23.322;2024-02-28T09:34:28;95125.13;;;17.11
45976;BMP280;31696;42.668;23.322;2024-02-28T09:36:28;95126.44;;;17.52
45976;BMP280;31696;42.668;23.322;2024-02-28T09:38:29;95127.25;;;17.03
45976;BMP280;31696;42.668;23.322;2024-02-28T09:40:30;95123.69;;;17.29
45976;BMP280;31696;42.668;23.322;2024-02-28T09:42:30;95115.84;;;17.50
45976;BMP280;31696;42.668;23.322;2024-02-28T09:44:31;95105.94;;;17.60
45976;BMP280;31696;42.668;23.322;2024-02-28T09:46:32;95119.03;;;17.18
45976;BMP280;31696;42.668;23.322;2024-02-28T09:48:34;95122.16;;;17.26
45976;BMP280;31696;42.668;23.322;2024-02-28T09:50:34;95116.13;;;17.66
45976;BMP280;31696;42.668;23.322;2024-02-28T09:52:35;95117.94;;;17.42
45976;BMP280;31696;42.668;23.322;2024-02-28T09:54:35;95109.22;;;17.18
45976;BMP280;31696;42.668;23.322;2024-02-28T09:56:36;95110.72;;;16.90
45976;BMP280;31696;42.668;23.322;2024-02-28T09:58:36;95113.19;;;16.29
45976;BMP280;31696;42.668;23.322;2024-02-28T10:00:39;95107.16;;;16.76
45976;BMP280;31696;42.668;23.322;2024-02-28T10:02:40;95104.16;;;16.61
45976;BMP280;31696;42.668;23.322;2024-02-28T10:04:41;95106.53;;;16.57
45976;BMP280;31696;42.668;23.322;2024-02-28T10:06:41;95109.91;;;16.88
45976;BMP280;31696;42.668;23.322;2024-02-28T10:08:42;95111.94;;;16.49
45976;BMP280;31696;42.668;23.322;2024-02-28T10:10:46;95115.13;;;16.38
45976;BMP280;31696;42.668;23.322;2024-02-28T10:12:47;95107.00;;;16.05
45976;BMP280;31696;42.668;23.322;2024-02-28T10:14:50;95108.97;;;15.30
45976;BMP280;31696;42.668;23.322;2024-02-28T10:16:54;95095.41;;;15.89
45976;BMP280;31696;42.668;23.322;2024-02-28T10:18:55;95103.53;;;16.31
45976;BMP280;31696;42.668;23.322;2024-02-28T10:20:55;95096.09;;;15.70
45976;BMP280;31696;42.668;23.322;2024-02-28T10:22:55;95094.84;;;15.81
45976;BMP280;31696;42.668;23.322;2024-02-28T10:24:56;95095.22;;;15.39
45976;BMP280;31696;42.668;23.322;2024-02-28T10:27:00;95094.63;;;15.31
45976;BMP280;31696;42.668;23.322;2024-02-28T10:29:00;95088.09;;;15.78
45976;BMP280;31696;42.668;23.322;2024-02-28T10:31:03;95091.56;;;16.00
45976;BMP280;31696;42.668;23.322;2024-02-28T10:33:04;95074.19;;;15.56
45976;BMP280;31696;42.668;23.322;2024-02-28T10:35:04;95071.00;;;15.67
45976;BMP280;31696;42.668;23.322;2024-02-28T10:37:06;95076.66;;;15.93
45976;BMP280;31696;42.668;23.322;2024-02-28T10:39:07;95073.75;;;16.27
45976;BMP280;31696;42.668;23.322;2024-02-28T10:41:09;95078.56;;;16.40
45976;BMP280;31696;42.668;23.322;2024-02-28T10:43:13;95074.72;;;16.31
45976;BMP280;31696;42.668;23.322;2024-02-28T10:45:16;95072.53;;;16.78
45976;BMP280;31696;42.668;23.322;2024-02-28T10:47:17;95066.84;;;16.81
45976;BMP280;31696;42.668;23.322;2024-02-28T10:49:18;95064.66;;;16.09
45976;BMP280;31696;42.668;23.322;2024-02-28T10:51:20;95063.31;;;15.69
45976;BMP280;31696;42.668;23.322;2024-02-28T10:53:22;95063.97;;;16.08
45976;BMP280;31696;42.668;23.322;2024-02-28T10:55:37;95065.59;;;16.42
45976;BMP280;31696;42.668;23.322;2024-02-28T10:57:39;95054.31;;;16.70
45976;BMP280;31696;42.668;23.322;2024-02-28T10:59:39;95055.25;;;16.84
45976;BMP280;31696;42.668;23.322;2024-02-28T11:01:41;95049.41;;;16.55
45976;BMP280;31696;42.668;23.322;2024-02-28T11:03:44;95050.69;;;16.35
45976;BMP280;31696;42.668;23.322;2024-02-28T11:05:45;95047.78;;;16.41
45976;BMP280;31696;42.668;23.322;2024-02-28T11:07:50;95043.91;;;16.51
45976;BMP280;31696;42.668;23.322;2024-02-28T11:09:54;95040.75;;;16.53
45976;BMP280;31696;42.668;23.322;2024-02-28T11:11:57;95036.69;;;16.61
45976;BMP280;31696;42.668;23.322;2024-02-28T11:13:58;95035.41;;;16.72
45976;BMP280;31696;42.668;23.322;2024-02-28T11:16:09;95029.97;;;16.58
45976;BMP280;31696;42.668;23.322;2024-02-28T11:18:09;95028.19;;;16.51
45976;BMP280;31696;42.668;23.322;2024-02-28T11:20:13;95017.75;;;16.32
45976;BMP280;31696;42.668;23.322;2024-02-28T11:22:13;95016.09;;;16.37
45976;BMP280;31696;42.668;23.322;2024-02-28T11:24:14;95012.31;;;16.49
45976;BMP280;31696;42.668;23.322;2024-02-28T11:26:14;95017.19;;;16.43
45976;BMP280;31696;42.668;23.322;2024-02-28T11:28:15;95014.41;;;16.41
45976;BMP280;31696;42.668;23.322;2024-02-28T11:30:16;95014.91;;;16.59
45976;BMP280;31696;42.668;23.322;2024-02-28T11:32:17;95006.63;;;16.62